Time;durP1;ratioP1;P1;durP2;ratioP2;P2;SDS_P1;SDS_P2;PMS_P1;PMS_P2;Temp;Humidity;BMP_temperature;BMP_pressure;BME280_temperature;BME280_humidity;BME280_pressure;Samples;Min_cycle;Max_cycle;Signal;HPM_P1;HPM_P2
2022/09/18 00:02:06;;;;;;;9.82;1.90;;;10.20;99.90;;;;;;4731398;30;20056;-84
2022/09/18 00:04:32;;;;;;;14.27;1.98;;;10.20;99.90;;;;;;4746575;30;20068;-84
2022/09/18 00:06:57;;;;;;;16.27;2.22;;;10.20;99.90;;;;;;4731060;30;20055;-84
2022/09/18 00:09:23;;;;;;;17.63;2.17;;;10.30;99.90;;;;;;4745907;30;20071;-85
2022/09/18 00:11:50;;;;;;;9.25;1.40;;;10.30;99.90;;;;;;4746548;30;20076;-84
2022/09/18 00:14:19;;;;;;;16.65;1.73;;;10.30;99.90;;;;;;4744989;30;20060;-84
2022/09/18 00:16:45;;;;;;;12.18;1.38;;;10.30;99.90;;;;;;4746101;30;20532;-84
2022/09/18 00:19:12;;;;;;;14.80;1.92;;;10.40;99.90;;;;;;4730953;30;20063;-84
2022/09/18 00:21:41;;;;;;;14.73;1.63;;;10.40;99.90;;;;;;4745998;30;20074;-84
2022/09/18 00:24:07;;;;;;;19.92;1.95;;;10.40;99.90;;;;;;4730154;30;20146;-84
2022/09/18 00:26:34;;;;;;;20.20;2.10;;;10.50;99.90;;;;;;4746477;30;20054;-85
2022/09/18 00:29:00;;;;;;;11.63;1.80;;;10.50;99.90;;;;;;4745322;30;20052;-86
2022/09/18 00:31:29;;;;;;;17.60;2.00;;;10.50;99.90;;;;;;4746153;30;20100;-86
2022/09/18 00:33:56;;;;;;;19.38;2.10;;;10.50;99.90;;;;;;4731158;30;20113;-86
2022/09/18 00:36:22;;;;;;;14.85;2.00;;;10.60;99.90;;;;;;4745632;30;20421;-86
2022/09/18 00:38:49;;;;;;;17.15;2.17;;;10.50;99.90;;;;;;4745696;30;20091;-85
2022/09/18 00:41:22;;;;;;;11.02;2.03;;;10.50;99.90;;;;;;4745762;30;20052;-85
2022/09/18 00:43:49;;;;;;;13.30;1.75;;;10.40;99.90;;;;;;4730850;30;20052;-85
2022/09/18 00:46:31;;;;;;;9.60;1.45;;;10.40;99.90;;;;;;4745966;30;20040;-85
2022/09/18 00:49:15;;;;;;;14.18;2.38;;;10.40;99.90;;;;;;4730193;30;20055;-84
2022/09/18 00:51:43;;;;;;;20.17;3.10;;;10.50;99.90;;;;;;4745854;30;20095;-85
2022/09/18 00:54:12;;;;;;;15.45;1.92;;;10.50;99.90;;;;;;4730206;30;20391;-85
2022/09/18 00:56:38;;;;;;;20.25;2.83;;;10.60;99.90;;;;;;4731555;30;20159;-87
2022/09/18 00:59:04;;;;;;;20.90;1.63;;;10.60;99.90;;;;;;4746321;30;20466;-84
2022/09/18 01:01:30;;;;;;;19.67;2.20;;;10.60;99.90;;;;;;4731004;30;20502;-83
2022/09/18 01:04:13;;;;;;;12.02;1.30;;;10.60;99.90;;;;;;4745439;30;20062;-85
2022/09/18 01:06:50;;;;;;;11.15;1.65;;;10.50;99.90;;;;;;4746345;30;20056;-86
2022/09/18 01:09:55;;;;;;;14.80;1.55;;;10.50;99.90;;;;;;4731487;30;20508;-86
2022/09/18 01:12:28;;;;;;;16.70;1.83;;;10.50;99.90;;;;;;4731376;30;20052;-86
2022/09/18 01:15:40;;;;;;;12.10;1.27;;;10.40;99.90;;;;;;4713587;30;20048;-86
2022/09/18 01:21:29;;;;;;;14.10;1.83;;;10.40;99.90;;;;;;4742038;30;20060;-85
2022/09/18 01:24:19;;;;;;;10.65;1.50;;;10.30;99.90;;;;;;4741083;30;20064;-86
2022/09/18 01:26:55;;;;;;;9.82;1.38;;;10.30;99.90;;;;;;4712956;30;20491;-85
2022/09/18 01:29:27;;;;;;;14.32;1.23;;;10.30;99.90;;;;;;4696808;30;20214;-85
2022/09/18 01:32:08;;;;;;;9.88;1.25;;;10.30;99.90;;;;;;4725283;30;20139;-85
2022/09/18 01:34:57;;;;;;;10.88;1.13;;;10.20;99.90;;;;;;4710729;30;20053;-85
2022/09/18 01:37:49;;;;;;;14.05;1.10;;;10.20;99.90;;;;;;4711120;30;20064;-85
2022/09/18 01:40:22;;;;;;;12.40;1.30;;;10.20;99.90;;;;;;4695374;30;20159;-86
2022/09/18 01:42:54;;;;;;;17.10;1.55;;;10.20;99.90;;;;;;4711536;30;20061;-86
2022/09/18 01:45:28;;;;;;;11.00;1.00;;;10.20;99.90;;;;;;4696221;30;20057;-85
2022/09/18 01:48:10;;;;;;;10.77;1.65;;;10.10;99.90;;;;;;4725464;30;20475;-86
2022/09/18 01:53:26;;;;;;;9.38;1.27;;;10.20;99.90;;;;;;4726925;30;20067;-85
2022/09/18 01:56:00;;;;;;;13.63;1.45;;;10.10;99.90;;;;;;4713567;30;20455;-85
2022/09/18 01:58:27;;;;;;;15.65;1.50;;;10.10;99.90;;;;;;4713541;30;20143;-86
2022/09/18 02:00:58;;;;;;;9.50;1.52;;;10.10;99.90;;;;;;4712874;30;20088;-85
2022/09/18 02:03:30;;;;;;;12.38;2.25;;;10.00;99.90;;;;;;4728048;30;20144;-85
2022/09/18 02:06:19;;;;;;;13.15;1.85;;;10.10;99.90;;;;;;4712787;30;20125;-86
2022/09/18 02:08:51;;;;;;;10.52;1.20;;;10.00;99.90;;;;;;4730815;30;20052;-85
2022/09/18 02:11:30;;;;;;;14.63;1.58;;;10.00;99.90;;;;;;4716709;30;20049;-85
2022/09/18 02:14:01;;;;;;;18.63;2.03;;;10.00;99.90;;;;;;4726355;30;20175;-85
2022/09/18 02:16:33;;;;;;;14.50;1.70;;;10.00;99.90;;;;;;4748787;30;20156;-85
2022/09/18 02:19:04;;;;;;;12.10;1.45;;;10.00;99.90;;;;;;4748465;30;20056;-85
2022/09/18 02:21:31;;;;;;;15.63;1.80;;;10.00;99.90;;;;;;4748247;30;20052;-85
2022/09/18 02:24:07;;;;;;;20.92;1.90;;;10.20;99.90;;;;;;4732901;30;20497;-85
2022/09/18 02:26:36;;;;;;;15.05;2.00;;;9.90;99.90;;;;;;4748913;30;20048;-85
2022/09/18 02:29:04;;;;;;;17.25;2.20;;;9.90;99.90;;;;;;4733296;30;20102;-85
2022/09/18 02:31:30;;;;;;;17.40;2.35;;;9.90;99.90;;;;;;4748352;30;20052;-85
2022/09/18 02:33:56;;;;;;;17.25;1.70;;;9.90;99.90;;;;;;4748069;30;20102;-85
2022/09/18 02:36:55;;;;;;;13.35;1.67;;;9.90;99.90;;;;;;4747655;30;20171;-85
2022/09/18 02:39:33;;;;;;;14.40;1.60;;;10.00;99.90;;;;;;4747557;30;20526;-85
2022/09/18 02:42:19;;;;;;;14.75;1.52;;;9.80;99.90;;;;;;4733241;30;20513;-85
2022/09/18 02:45:13;;;;;;;13.20;1.92;;;10.00;99.90;;;;;;4748018;30;20063;-84
2022/09/18 02:48:16;;;;;;;14.00;2.13;;;10.50;99.90;;;;;;4733652;30;20087;-84
2022/09/18 02:51:09;;;;;;;16.45;2.22;;;10.10;99.90;;;;;;4733340;30;20056;-85
2022/09/18 02:53:56;;;;;;;20.52;2.30;;;10.20;99.90;;;;;;4747493;30;20059;-85
2022/09/18 02:56:46;;;;;;;12.20;1.50;;;10.20;99.90;;;;;;4732535;30;20052;-85
2022/09/18 02:59:31;;;;;;;14.73;2.33;;;10.20;99.90;;;;;;4733246;30;20504;-85
2022/09/18 03:01:58;;;;;;;14.65;1.77;;;10.20;99.90;;;;;;4748259;30;20517;-85
2022/09/18 03:04:25;;;;;;;14.18;1.88;;;10.20;99.90;;;;;;4746655;30;20521;-84
2022/09/18 03:07:00;;;;;;;13.45;2.67;;;10.20;99.90;;;;;;4748051;30;20052;-84
2022/09/18 03:09:26;;;;;;;17.88;1.50;;;10.30;99.90;;;;;;4746988;30;20060;-85
2022/09/18 03:11:52;;;;;;;21.70;2.20;;;10.20;99.90;;;;;;4733246;30;20090;-85
2022/09/18 03:14:19;;;;;;;12.77;1.90;;;10.20;99.90;;;;;;4732553;30;20115;-85
2022/09/18 03:16:44;;;;;;;16.83;1.85;;;10.30;99.90;;;;;;4747696;30;20069;-85
2022/09/18 03:19:13;;;;;;;16.23;2.10;;;10.20;99.90;;;;;;4746302;30;20048;-84
2022/09/18 03:21:39;;;;;;;17.17;2.38;;;10.30;99.90;;;;;;4748257;30;20063;-84
2022/09/18 03:24:05;;;;;;;15.82;1.98;;;10.30;99.90;;;;;;4746672;30;20413;-85
2022/09/18 03:26:31;;;;;;;10.02;1.70;;;10.30;99.90;;;;;;4732989;30;20058;-85
2022/09/18 03:29:07;;;;;;;12.70;1.70;;;10.30;99.90;;;;;;4747660;30;20063;-85
2022/09/18 03:31:45;;;;;;;14.27;1.27;;;9.90;99.90;;;;;;4732613;30;20064;-85
2022/09/18 03:34:11;;;;;;;9.88;1.45;;;10.30;99.90;;;;;;4731897;30;20119;-85
2022/09/18 03:36:49;;;;;;;14.48;1.80;;;10.30;99.90;;;;;;4733034;30;20052;-85
2022/09/18 03:39:16;;;;;;;11.32;1.45;;;10.30;99.90;;;;;;4745742;30;20524;-85
2022/09/18 03:41:42;;;;;;;15.18;1.60;;;10.30;99.90;;;;;;4732939;30;20056;-85
2022/09/18 03:44:13;;;;;;;13.77;2.08;;;9.80;99.90;;;;;;4732173;30;20559;-85
2022/09/18 03:46:38;;;;;;;8.73;1.27;;;10.30;99.90;;;;;;4731546;30;20115;-84
2022/09/18 03:49:04;;;;;;;12.48;1.70;;;10.30;99.90;;;;;;4732267;30;20052;-85
2022/09/18 03:51:30;;;;;;;11.93;1.98;;;10.30;99.90;;;;;;4731920;30;20075;-85
2022/09/18 03:54:03;;;;;;;13.98;1.85;;;10.30;99.90;;;;;;4731038;30;20060;-85
2022/09/18 03:56:29;;;;;;;13.55;1.58;;;10.30;99.90;;;;;;4732360;30;20048;-85
2022/09/18 03:58:55;;;;;;;14.93;1.58;;;10.30;99.90;;;;;;4746109;30;20051;-85
2022/09/18 04:01:30;;;;;;;13.77;2.20;;;10.30;99.90;;;;;;4746964;30;20422;-85
2022/09/18 04:04:01;;;;;;;10.25;1.48;;;10.30;99.90;;;;;;4746955;30;20052;-85
2022/09/18 04:06:27;;;;;;;12.07;1.92;;;10.30;99.90;;;;;;4746910;30;20159;-85
2022/09/18 04:08:53;;;;;;;11.98;1.63;;;10.20;99.90;;;;;;4721242;30;20502;-85
2022/09/18 04:11:18;;;;;;;10.23;1.00;;;10.30;99.90;;;;;;4730061;30;20578;-85
2022/09/18 04:13:44;;;;;;;12.88;1.17;;;10.20;99.90;;;;;;4713409;30;20169;-85
2022/09/18 04:16:10;;;;;;;9.88;1.52;;;10.20;99.90;;;;;;4729218;30;20049;-85
2022/09/18 04:18:36;;;;;;;9.73;1.20;;;10.20;99.90;;;;;;4714928;30;20517;-85
2022/09/18 04:21:01;;;;;;;11.88;1.55;;;10.20;99.90;;;;;;4728266;30;20139;-85
2022/09/18 04:23:27;;;;;;;14.38;1.67;;;10.20;99.90;;;;;;4743029;30;20143;-85
2022/09/18 04:25:53;;;;;;;13.00;1.70;;;10.20;99.90;;;;;;4728610;30;20052;-84
2022/09/18 04:28:19;;;;;;;12.38;1.33;;;10.20;99.90;;;;;;4713724;30;20056;-84
2022/09/18 04:30:46;;;;;;;13.50;1.30;;;10.20;99.90;;;;;;4728653;30;20053;-85
2022/09/18 04:33:12;;;;;;;12.07;1.70;;;10.20;99.90;;;;;;4728761;30;20134;-85
2022/09/18 04:35:38;;;;;;;14.50;1.45;;;10.30;99.90;;;;;;4713728;30;20091;-85
2022/09/18 04:38:16;;;;;;;19.30;2.20;;;10.30;99.90;;;;;;4713944;30;20045;-85
2022/09/18 04:40:42;;;;;;;12.43;1.92;;;10.40;99.90;;;;;;4739300;30;20052;-86
2022/09/18 04:43:09;;;;;;;16.55;2.10;;;10.40;99.90;;;;;;4746662;30;20079;-85
2022/09/18 04:45:35;;;;;;;11.57;1.70;;;10.30;99.90;;;;;;4746991;30;20048;-85
2022/09/18 04:48:01;;;;;;;14.00;1.70;;;10.30;99.90;;;;;;4731077;30;20048;-84
2022/09/18 04:50:27;;;;;;;18.42;2.33;;;10.30;99.90;;;;;;4731575;30;20059;-85
2022/09/18 04:52:57;;;;;;;13.30;1.58;;;10.30;99.90;;;;;;4731361;30;20095;-85
2022/09/18 04:55:22;;;;;;;11.40;1.70;;;10.20;99.90;;;;;;4730021;30;20075;-85
2022/09/18 04:57:48;;;;;;;15.68;1.42;;;10.20;99.90;;;;;;4731055;30;20048;-85
2022/09/18 05:00:14;;;;;;;10.27;1.30;;;10.20;99.90;;;;;;4730897;30;20069;-85
2022/09/18 05:02:52;;;;;;;10.70;1.60;;;10.20;99.90;;;;;;4745480;30;20060;-84
2022/09/18 05:05:18;;;;;;;11.75;1.30;;;10.20;99.90;;;;;;4730857;30;20060;-84
2022/09/18 05:07:47;;;;;;;11.48;1.20;;;10.20;99.90;;;;;;4731334;30;20054;-85
2022/09/18 05:10:12;;;;;;;11.00;1.80;;;10.20;99.90;;;;;;4729687;30;20088;-85
2022/09/18 05:12:39;;;;;;;9.73;1.75;;;10.30;99.90;;;;;;4731471;30;20084;-85
2022/09/18 05:15:05;;;;;;;11.77;1.58;;;10.30;99.90;;;;;;4745592;30;20422;-85
2022/09/18 05:17:43;;;;;;;18.75;1.73;;;11.00;99.90;;;;;;4745374;30;20068;-84
2022/09/18 05:20:09;;;;;;;17.30;1.70;;;10.40;99.90;;;;;;4716038;30;20064;-83
2022/09/18 05:22:35;;;;;;;16.15;2.17;;;10.40;99.90;;;;;;4713857;30;20067;-85
2022/09/18 05:25:05;;;;;;;7.05;1.15;;;10.40;99.90;;;;;;4726808;30;20052;-85
2022/09/18 05:27:31;;;;;;;17.58;1.85;;;10.30;99.90;;;;;;4729144;30;20067;-86
2022/09/18 05:29:56;;;;;;;9.45;1.23;;;10.30;99.90;;;;;;4712897;30;20049;-85
2022/09/18 05:32:31;;;;;;;11.10;1.65;;;10.40;99.90;;;;;;4713509;30;20057;-86
2022/09/18 05:34:57;;;;;;;11.23;1.35;;;10.40;99.90;;;;;;4742677;30;20063;-85
2022/09/18 05:37:30;;;;;;;12.98;1.63;;;10.40;99.90;;;;;;4713336;30;20063;-85
2022/09/18 05:39:59;;;;;;;6.68;1.27;;;10.40;99.90;;;;;;4742442;30;20053;-85
2022/09/18 05:42:24;;;;;;;14.95;1.52;;;10.40;99.90;;;;;;4744523;30;20106;-85
2022/09/18 05:44:56;;;;;;;11.68;1.17;;;10.40;99.90;;;;;;4716263;30;20056;-85
2022/09/18 05:47:22;;;;;;;7.35;1.38;;;10.40;99.90;;;;;;4745850;30;20059;-84
2022/09/18 05:49:51;;;;;;;7.97;0.82;;;10.40;99.90;;;;;;4731367;30;20048;-85
2022/09/18 05:52:17;;;;;;;11.30;1.30;;;10.40;99.90;;;;;;4731010;30;20052;-85
2022/09/18 05:54:42;;;;;;;7.75;1.05;;;10.40;99.90;;;;;;4734704;30;20059;-86
2022/09/18 05:57:08;;;;;;;13.40;1.67;;;10.40;99.90;;;;;;4741534;30;20084;-83
2022/09/18 05:59:34;;;;;;;14.05;1.90;;;10.50;99.90;;;;;;4739333;30;20051;-83
2022/09/18 06:01:59;;;;;;;11.77;1.27;;;10.50;99.90;;;;;;4756156;30;20052;-84
2022/09/18 06:04:25;;;;;;;7.25;1.27;;;10.50;99.90;;;;;;4749168;30;20044;-84
2022/09/18 06:06:55;;;;;;;13.43;2.05;;;10.40;99.90;;;;;;4733954;30;20048;-83
2022/09/18 06:09:21;;;;;;;12.00;1.20;;;10.40;99.90;;;;;;4737730;30;20048;-84
2022/09/18 06:11:47;;;;;;;15.05;1.92;;;10.50;99.90;;;;;;4733401;30;20056;-83
2022/09/18 06:14:23;;;;;;;10.80;1.42;;;10.50;99.90;;;;;;4729548;30;20063;-84
2022/09/18 06:16:49;;;;;;;12.07;1.98;;;10.50;99.90;;;;;;4726104;30;20513;-84
2022/09/18 06:19:15;;;;;;;11.52;1.17;;;10.40;99.90;;;;;;4738748;30;20048;-83
2022/09/18 06:21:40;;;;;;;15.65;2.17;;;10.50;99.90;;;;;;4724309;30;20413;-84
2022/09/18 06:24:07;;;;;;;12.60;1.95;;;10.50;99.90;;;;;;4725015;30;20064;-84
2022/09/18 06:26:33;;;;;;;9.38;1.30;;;10.50;99.90;;;;;;4738523;30;20061;-84
2022/09/18 06:28:59;;;;;;;11.77;1.33;;;10.50;99.90;;;;;;4724588;30;20055;-84
2022/09/18 06:31:25;;;;;;;12.45;1.40;;;10.50;99.90;;;;;;4723891;30;20052;-84
2022/09/18 06:33:51;;;;;;;18.63;2.03;;;10.50;99.90;;;;;;4729674;30;20187;-84
2022/09/18 06:36:32;;;;;;;14.07;1.67;;;10.50;99.90;;;;;;4720632;30;20059;-85
2022/09/18 06:38:58;;;;;;;33.92;3.15;;;10.60;99.90;;;;;;4739210;30;20060;-84
2022/09/18 06:41:31;;;;;;;39.13;4.13;;;10.60;99.90;;;;;;4721712;30;20056;-84
2022/09/18 06:43:56;;;;;;;20.95;2.92;;;10.60;99.90;;;;;;4725735;30;20879;-84
2022/09/18 06:46:23;;;;;;;21.00;2.53;;;10.70;99.90;;;;;;4737484;30;20060;-84
2022/09/18 06:48:54;;;;;;;19.67;2.80;;;10.70;99.90;;;;;;4723746;30;20048;-84
2022/09/18 06:51:20;;;;;;;23.35;3.28;;;10.70;99.90;;;;;;4724640;30;20055;-84
2022/09/18 06:53:46;;;;;;;19.58;2.92;;;10.80;99.90;;;;;;4722274;30;20044;-84
2022/09/18 06:56:12;;;;;;;30.48;3.75;;;10.80;99.90;;;;;;4736426;30;20097;-84
2022/09/18 06:58:43;;;;;;;12.18;2.28;;;10.90;99.90;;;;;;4722458;30;20088;-85
2022/09/18 07:01:08;;;;;;;20.17;2.45;;;10.90;99.90;;;;;;4717194;30;20507;-85
2022/09/18 07:03:43;;;;;;;11.13;1.33;;;11.00;99.90;;;;;;4716450;30;20044;-85
2022/09/18 07:06:23;;;;;;;12.63;2.08;;;11.00;99.90;;;;;;4729017;30;20138;-85
2022/09/18 07:08:49;;;;;;;10.00;1.42;;;11.00;99.90;;;;;;4720148;30;20056;-85
2022/09/18 07:11:35;;;;;;;10.20;1.42;;;11.00;99.90;;;;;;4722241;30;20118;-85
2022/09/18 07:14:07;;;;;;;12.60;2.03;;;11.00;99.90;;;;;;4722088;30;20525;-85
2022/09/18 07:16:34;;;;;;;10.52;1.35;;;11.00;99.90;;;;;;4747171;30;20059;-84
2022/09/18 07:19:00;;;;;;;9.70;1.05;;;11.00;99.90;;;;;;4747691;30;20052;-84
2022/09/18 07:21:26;;;;;;;9.60;0.90;;;11.00;99.90;;;;;;4732793;30;20068;-84
2022/09/18 07:23:52;;;;;;;9.48;0.98;;;10.80;99.90;;;;;;4731192;30;20117;-85
2022/09/18 07:26:18;;;;;;;14.65;1.25;;;11.00;99.90;;;;;;4733156;30;20116;-85
2022/09/18 07:28:44;;;;;;;10.00;1.20;;;11.00;99.90;;;;;;4731912;30;20661;-84
2022/09/18 07:31:10;;;;;;;7.00;0.98;;;11.10;99.90;;;;;;4745854;30;20059;-84
2022/09/18 07:33:39;;;;;;;7.85;0.93;;;11.10;99.90;;;;;;4731307;30;20117;-84
2022/09/18 07:36:05;;;;;;;13.48;1.65;;;11.10;99.90;;;;;;4746979;30;20109;-85
2022/09/18 07:38:33;;;;;;;9.85;0.98;;;11.20;99.90;;;;;;4730798;30;20052;-85
2022/09/18 07:41:09;;;;;;;7.13;1.10;;;11.20;99.90;;;;;;4717068;30;20364;-85
2022/09/18 07:43:34;;;;;;;7.25;0.93;;;11.20;99.90;;;;;;4744822;30;20054;-84
2022/09/18 07:46:01;;;;;;;11.57;1.60;;;11.20;99.90;;;;;;4731934;30;20139;-84
2022/09/18 07:49:01;;;;;;;10.60;1.08;;;11.20;99.90;;;;;;4747301;30;20466;-88
2022/09/18 07:51:27;;;;;;;9.65;1.42;;;11.20;99.90;;;;;;4717585;30;20086;-85
2022/09/18 07:53:56;;;;;;;9.82;1.48;;;11.10;99.90;;;;;;4731672;30;20102;-86
2022/09/18 07:56:22;;;;;;;11.75;1.48;;;11.10;99.90;;;;;;4732542;30;20068;-86
2022/09/18 07:58:48;;;;;;;8.30;0.88;;;11.10;99.90;;;;;;4746787;30;20067;-85
2022/09/18 08:01:13;;;;;;;11.20;1.50;;;11.10;99.90;;;;;;4746907;30;20055;-84
2022/09/18 08:03:39;;;;;;;13.57;1.40;;;11.00;99.90;;;;;;4732203;30;20060;-85
2022/09/18 08:06:06;;;;;;;9.18;1.10;;;11.00;99.90;;;;;;4732019;30;20059;-85
2022/09/18 08:08:35;;;;;;;9.80;1.77;;;11.00;99.90;;;;;;4726619;30;20135;-87
2022/09/18 08:11:00;;;;;;;13.10;2.17;;;11.10;99.90;;;;;;4732622;30;20671;-87
2022/09/18 08:13:30;;;;;;;12.25;1.48;;;11.00;99.90;;;;;;4732420;30;20072;-87
2022/09/18 08:15:59;;;;;;;6.18;1.27;;;11.10;99.90;;;;;;4747168;30;20052;-88
2022/09/18 08:18:25;;;;;;;7.10;1.15;;;11.10;99.90;;;;;;4733318;30;20056;-88
2022/09/18 08:20:54;;;;;;;11.05;1.10;;;11.10;99.90;;;;;;4733980;30;20778;-87
2022/09/18 08:23:20;;;;;;;7.03;1.33;;;11.00;99.90;;;;;;4747129;30;20055;-87
2022/09/18 08:25:46;;;;;;;7.95;1.27;;;11.10;99.90;;;;;;4746437;30;20052;-87
2022/09/18 08:28:12;;;;;;;10.20;1.40;;;11.00;99.90;;;;;;4732766;30;20508;-86
2022/09/18 08:30:38;;;;;;;12.10;1.80;;;11.10;99.90;;;;;;4732261;30;20141;-84
2022/09/18 08:33:06;;;;;;;9.15;1.85;;;11.10;99.90;;;;;;4745568;30;20051;-85
2022/09/18 08:35:32;;;;;;;8.50;1.33;;;11.10;99.90;;;;;;4746583;30;20056;-86
2022/09/18 08:37:59;;;;;;;10.18;1.10;;;11.10;99.90;;;;;;4745953;30;20125;-84
2022/09/18 08:41:02;;;;;;;8.38;1.25;;;11.10;99.90;;;;;;4730551;30;20150;-84
2022/09/18 08:43:50;;;;;;;13.20;1.73;;;11.10;99.90;;;;;;4731142;30;20486;-86
2022/09/18 08:46:33;;;;;;;12.27;1.40;;;11.10;99.90;;;;;;4741764;30;20358;-85
2022/09/18 08:49:10;;;;;;;8.23;1.10;;;11.10;99.90;;;;;;4731666;30;20071;-86
2022/09/18 08:51:53;;;;;;;10.07;1.10;;;11.10;99.90;;;;;;4732829;30;20148;-87
2022/09/18 08:54:43;;;;;;;16.38;1.50;;;11.20;99.90;;;;;;4730829;30;20091;-86
2022/09/18 08:57:18;;;;;;;31.90;2.60;;;11.20;99.90;;;;;;4732422;30;20052;-84
2022/09/18 09:00:12;;;;;;;16.33;1.27;;;11.10;99.90;;;;;;4730954;30;20052;-84
2022/09/18 09:02:44;;;;;;;8.18;1.33;;;11.10;99.90;;;;;;4731404;30;20506;-83
2022/09/18 09:05:14;;;;;;;5.57;0.82;;;11.10;99.90;;;;;;4731214;30;20143;-83
2022/09/18 09:07:58;;;;;;;26.92;2.88;;;11.00;99.90;;;;;;4731135;30;20528;-82
2022/09/18 09:10:36;;;;;;;46.85;5.53;;;11.10;99.90;;;;;;4730056;30;20452;-83
2022/09/18 09:13:31;;;;;;;40.28;5.35;;;11.00;99.90;;;;;;4746150;30;20146;-83
2022/09/18 09:16:17;;;;;;;24.08;3.80;;;11.00;99.90;;;;;;4745673;30;20068;-84
2022/09/18 09:18:56;;;;;;;22.77;2.88;;;11.00;99.90;;;;;;4730516;30;20060;-84
2022/09/18 09:21:35;;;;;;;13.60;2.17;;;10.90;99.90;;;;;;4732205;30;20060;-85
2022/09/18 09:24:28;;;;;;;9.45;1.15;;;10.90;99.90;;;;;;4730604;30;20048;-84
2022/09/18 09:26:58;;;;;;;14.00;1.50;;;11.00;99.90;;;;;;4717368;30;20143;-85
2022/09/18 09:29:41;;;;;;;10.55;2.05;;;11.00;99.90;;;;;;4731359;30;20061;-85
2022/09/18 09:32:26;;;;;;;17.50;2.15;;;11.00;99.90;;;;;;4731625;30;20135;-85
2022/09/18 09:35:03;;;;;;;14.50;1.60;;;11.10;99.90;;;;;;4717025;30;20588;-85
2022/09/18 09:37:39;;;;;;;19.83;2.10;;;11.20;99.90;;;;;;4731140;30;20062;-84
2022/09/18 09:40:31;;;;;;;8.55;1.50;;;11.20;99.90;;;;;;4732113;30;20057;-85
2022/09/18 09:43:09;;;;;;;15.10;1.95;;;11.30;99.90;;;;;;4746364;30;20171;-85
2022/09/18 09:45:50;;;;;;;9.55;1.60;;;11.40;99.90;;;;;;4731681;30;20056;-85
2022/09/18 09:48:24;;;;;;;10.63;1.08;;;11.40;99.90;;;;;;4732020;30;20049;-87
2022/09/18 09:51:23;;;;;;;14.30;1.55;;;11.40;99.90;;;;;;4732149;30;20044;-87
2022/09/18 09:54:00;;;;;;;;;;;;;;;;;;;;;
2022/09/18 09:56:30;;;;;;;8.80;1.27;;;11.50;99.90;;;;;;4732479;30;20055;-85
2022/09/18 09:59:08;;;;;;;9.05;1.40;;;11.60;99.90;;;;;;4731353;30;20487;-85
2022/09/18 10:01:58;;;;;;;11.65;1.40;;;11.70;99.90;;;;;;4718024;30;20052;-87
2022/09/18 10:04:46;;;;;;;10.07;1.30;;;11.80;99.90;;;;;;4746496;30;20139;-87
2022/09/18 10:07:22;;;;;;;11.98;1.60;;;11.80;99.90;;;;;;4746799;30;20060;-86
2022/09/18 10:09:53;;;;;;;11.93;1.52;;;11.90;99.90;;;;;;4716906;30;20495;-84
2022/09/18 10:12:36;;;;;;;9.25;1.40;;;12.00;99.90;;;;;;4716365;30;20059;-85
2022/09/18 10:15:15;;;;;;;;;;;11.70;99.90;;;;;;4731611;30;20075;-85
2022/09/18 10:17:42;;;;;;;13.15;1.88;;;12.00;99.90;;;;;;4746779;30;19934;-85
2022/09/18 10:20:16;;;;;;;7.97;1.27;;;12.10;99.90;;;;;;4717078;30;20154;-86
2022/09/18 10:22:43;;;;;;;12.60;1.85;;;12.10;99.90;;;;;;4731856;30;20195;-85
2022/09/18 10:25:26;;;;;;;11.15;1.55;;;12.20;99.90;;;;;;4745306;30;20056;-85
2022/09/18 10:27:51;;;;;;;9.57;1.58;;;12.20;99.90;;;;;;4745352;30;20272;-85
2022/09/18 10:30:17;;;;;;;10.00;1.45;;;12.30;99.90;;;;;;4716524;30;20051;-85
2022/09/18 10:32:43;;;;;;;11.02;1.90;;;12.40;99.90;;;;;;4723288;30;20074;-85
2022/09/18 10:35:42;;;;;;;15.18;1.58;;;12.50;99.90;;;;;;4732764;30;20055;-85
2022/09/18 10:38:31;;;;;;;11.68;1.58;;;12.50;99.90;;;;;;4747602;30;20063;-86
2022/09/18 10:41:15;;;;;;;12.27;1.40;;;12.40;99.90;;;;;;4744378;30;20059;-85
2022/09/18 10:43:56;;;;;;;11.85;1.50;;;12.40;99.90;;;;;;4733625;30;20064;-86
2022/09/18 10:46:27;;;;;;;9.80;1.40;;;12.30;99.90;;;;;;4733382;30;20476;-87
2022/09/18 10:48:54;;;;;;;10.43;1.35;;;12.40;99.90;;;;;;4734053;30;20048;-86
2022/09/18 10:51:24;;;;;;;10.13;1.52;;;12.50;99.90;;;;;;4747737;30;20489;-86
2022/09/18 10:54:02;;;;;;;12.98;1.58;;;12.60;99.90;;;;;;4746858;30;20896;-86
2022/09/18 10:56:29;;;;;;;11.55;1.20;;;12.70;99.90;;;;;;4733714;30;20056;-86
2022/09/18 10:58:58;;;;;;;6.15;1.13;;;12.80;99.90;;;;;;4732759;30;20143;-86
2022/09/18 11:01:24;;;;;;;5.63;1.10;;;12.90;99.90;;;;;;4732746;30;20058;-85
2022/09/18 11:04:00;;;;;;;10.02;1.33;;;13.00;99.90;;;;;;4733610;30;20059;-86
2022/09/18 11:06:30;;;;;;;10.50;1.65;;;13.10;99.90;;;;;;4733640;30;20522;-87
2022/09/18 11:09:11;;;;;;;8.85;1.17;;;13.20;99.90;;;;;;4746700;30;20143;-86
2022/09/18 11:11:50;;;;;;;14.07;1.55;;;13.30;99.90;;;;;;4733220;30;20048;-87
2022/09/18 11:14:36;;;;;;;7.22;1.20;;;12.90;99.90;;;;;;4732334;30;20062;-87
2022/09/18 11:17:03;;;;;;;14.38;1.60;;;13.40;99.90;;;;;;4732736;30;20059;-87
2022/09/18 11:19:49;;;;;;;7.88;1.83;;;13.40;99.90;;;;;;4723086;30;20425;-86
2022/09/18 11:22:33;;;;;;;11.00;1.90;;;13.40;99.90;;;;;;4729826;30;20056;-88
2022/09/18 11:25:22;;;;;;;9.35;1.65;;;13.50;99.90;;;;;;4715546;30;20083;-88
2022/09/18 11:27:54;;;;;;;7.57;1.40;;;13.60;99.90;;;;;;4745378;30;20514;-88
2022/09/18 11:30:27;;;;;;;11.95;1.30;;;13.60;99.90;;;;;;4745351;30;20056;-87
2022/09/18 11:33:10;;;;;;;9.82;1.00;;;13.70;99.90;;;;;;4745199;30;20138;-87
2022/09/18 11:36:02;;;;;;;6.18;1.40;;;13.70;99.90;;;;;;4730192;30;20470;-87
2022/09/18 11:38:28;;;;;;;10.55;1.42;;;13.70;99.90;;;;;;4715384;30;20122;-88
2022/09/18 11:40:58;;;;;;;10.35;1.38;;;13.80;99.90;;;;;;4729625;30;20067;-88
2022/09/18 11:43:50;;;;;;;9.55;1.25;;;13.80;99.90;;;;;;4744824;30;20075;-87
2022/09/18 11:46:49;;;;;;;10.25;1.10;;;13.80;99.90;;;;;;4730547;30;20130;-88
2022/09/18 11:49:22;;;;;;;14.43;1.55;;;13.90;99.90;;;;;;4715812;30;20135;-88
2022/09/18 11:51:54;;;;;;;12.93;1.33;;;13.90;99.90;;;;;;4744982;30;20048;-87
2022/09/18 11:55:02;;;;;;;10.05;1.02;;;13.90;99.90;;;;;;4728871;30;20088;-88
2022/09/18 11:57:37;;;;;;;20.17;1.77;;;13.90;99.90;;;;;;4744437;30;20056;-87
2022/09/18 12:00:30;;;;;;;11.40;1.40;;;13.90;99.90;;;;;;4743276;30;20088;-88
2022/09/18 12:03:35;;;;;;;11.80;1.42;;;13.80;99.90;;;;;;4737400;30;20063;-87
2022/09/18 12:06:27;;;;;;;9.88;1.40;;;13.70;99.90;;;;;;4744281;30;20053;-88
2022/09/18 12:09:13;;;;;;;10.52;1.33;;;13.60;99.90;;;;;;4724914;30;20105;-87
2022/09/18 12:12:04;;;;;;;6.95;1.35;;;13.60;99.90;;;;;;4732496;30;20135;-88
2022/09/18 12:15:08;;;;;;;12.18;1.33;;;13.70;99.90;;;;;;4732864;30;20095;-87
2022/09/18 12:17:38;;;;;;;;;;;13.70;99.90;;;;;;4733515;30;20084;-87
2022/09/18 12:20:12;;;;;;;9.70;1.20;;;13.70;99.90;;;;;;4746393;30;20024;-87
2022/09/18 12:22:48;;;;;;;11.50;1.48;;;13.90;99.90;;;;;;4733051;30;20048;-87
2022/09/18 12:25:22;;;;;;;13.90;1.40;;;14.00;99.90;;;;;;4731081;30;21086;-88
2022/09/18 12:28:02;;;;;;;9.82;1.23;;;14.10;99.90;;;;;;4732348;30;20063;-87
2022/09/18 12:30:38;;;;;;;15.82;1.95;;;14.30;99.90;;;;;;4732482;30;20056;-87
2022/09/18 12:33:16;;;;;;;11.80;1.73;;;14.40;99.90;;;;;;4731416;30;20048;-87
2022/09/18 12:35:48;;;;;;;12.32;1.55;;;14.50;99.90;;;;;;4732670;30;20527;-88
2022/09/18 12:38:37;;;;;;;8.07;1.67;;;14.60;99.90;;;;;;4731681;30;20064;-86
2022/09/18 12:41:13;;;;;;;13.45;2.00;;;14.70;99.90;;;;;;4718034;30;20502;-87
2022/09/18 12:44:00;;;;;;;7.22;0.90;;;14.80;99.90;;;;;;4728868;30;20055;-85
2022/09/18 12:46:40;;;;;;;10.52;1.67;;;14.80;99.90;;;;;;4728172;30;20099;-86
2022/09/18 12:49:30;;;;;;;13.63;1.67;;;14.90;99.90;;;;;;4714602;30;20868;-86
2022/09/18 12:52:14;;;;;;;9.73;1.30;;;14.90;99.90;;;;;;4713895;30;20510;-87
2022/09/18 12:54:50;;;;;;;11.82;1.30;;;15.00;99.90;;;;;;4727167;30;20399;-86
2022/09/18 12:57:22;;;;;;;10.98;1.67;;;14.90;99.90;;;;;;4728692;30;20095;-86
2022/09/18 12:59:56;;;;;;;15.80;1.20;;;14.90;99.90;;;;;;4714064;30;20387;-85
2022/09/18 13:02:37;;;;;;;9.60;1.17;;;14.80;99.90;;;;;;4713735;30;20079;-85
2022/09/18 13:05:13;;;;;;;6.80;1.02;;;14.80;99.90;;;;;;4728246;30;20139;-86
2022/09/18 13:07:46;;;;;;;11.18;1.50;;;14.80;99.90;;;;;;4713838;30;20102;-86
2022/09/18 13:10:21;;;;;;;11.48;1.05;;;14.90;99.90;;;;;;4728230;30;20492;-86
2022/09/18 13:13:01;;;;;;;7.00;1.00;;;14.90;99.90;;;;;;4729182;30;20118;-86
2022/09/18 13:15:39;;;;;;;8.95;1.23;;;15.00;99.90;;;;;;4727423;30;20114;-86
2022/09/18 13:18:14;;;;;;;5.55;0.95;;;15.00;99.90;;;;;;4728817;30;20053;-86
2022/09/18 13:20:44;;;;;;;10.70;1.65;;;14.80;99.90;;;;;;4728873;30;20505;-86